Time;durP1;ratioP1;P1;durP2;ratioP2;P2;SDS_P1;SDS_P2;PMS_P1;PMS_P2;Temp;Humidity;BMP_temperature;BMP_pressure;BME280_temperature;BME280_humidity;BME280_pressure;Samples;Min_cycle;Max_cycle;Signal;HPM_P1;HPM_P2
2024/01/02 00:02:02;;;;;;;6.65;1.70;;;;;;;;;;5032548;28;20045;-78
2024/01/02 00:04:27;;;;;;;12.35;2.10;;;;;;;;;;5032267;28;20029;-77
2024/01/02 00:06:53;;;;;;;13.27;2.33;;;;;;;;;;5032425;28;20489;-77
2024/01/02 00:09:18;;;;;;;9.75;1.85;;;;;;;;;;5032221;28;20296;-75
2024/01/02 00:11:43;;;;;;;9.60;1.48;;;;;;;;;;5031127;28;20037;-76
2024/01/02 00:14:08;;;;;;;9.77;2.20;;;;;;;;;;5032011;28;20032;-76
2024/01/02 00:16:34;;;;;;;8.30;1.30;;;;;;;;;;5031021;28;20489;-78
2024/01/02 00:18:59;;;;;;;9.07;1.50;;;;;;;;;;5032127;28;20095;-78
2024/01/02 00:21:24;;;;;;;11.40;1.80;;;;;;;;;;5031941;28;20108;-77
2024/01/02 00:23:49;;;;;;;12.65;2.40;;;;;;;;;;5032148;28;20029;-78
2024/01/02 00:26:14;;;;;;;9.93;1.52;;;;;;;;;;5030922;28;20555;-79
2024/01/02 00:28:40;;;;;;;9.02;1.65;;;;;;;;;;5032721;28;20101;-77
2024/01/02 00:31:05;;;;;;;11.38;1.67;;;;;;;;;;5031746;28;20029;-78
2024/01/02 00:33:30;;;;;;;12.63;2.45;;;;;;;;;;5030340;28;20021;-78
2024/01/02 00:35:55;;;;;;;9.35;1.40;;;;;;;;;;5030772;28;20026;-78
2024/01/02 00:38:22;;;;;;;5.97;1.33;;;;;;;;;;5030123;28;20033;-78
2024/01/02 00:40:47;;;;;;;7.35;1.35;;;;;;;;;;5031823;28;20114;-78
2024/01/02 00:43:13;;;;;;;6.93;1.88;;;;;;;;;;5031347;28;20127;-78
2024/01/02 00:45:38;;;;;;;8.40;1.48;;;;;;;;;;5027823;28;20104;-77
2024/01/02 00:48:03;;;;;;;5.53;1.08;;;;;;;;;;5030239;28;20113;-78
2024/01/02 00:50:28;;;;;;;9.45;1.65;;;;;;;;;;5030242;28;20379;-78
2024/01/02 00:52:54;;;;;;;9.55;2.15;;;;;;;;;;5031149;28;20485;-78
2024/01/02 00:55:19;;;;;;;7.43;1.33;;;;;;;;;;5029910;28;20025;-78
2024/01/02 00:57:44;;;;;;;10.73;2.03;;;;;;;;;;5030596;28;20168;-78
2024/01/02 01:00:10;;;;;;;7.70;1.52;;;;;;;;;;5030252;28;20067;-78
2024/01/02 01:02:35;;;;;;;7.85;1.63;;;;;;;;;;5031199;28;20061;-78
2024/01/02 01:05:00;;;;;;;12.60;2.10;;;;;;;;;;5031246;28;20116;-77
2024/01/02 01:07:25;;;;;;;10.68;1.50;;;;;;;;;;5029993;28;20076;-77
2024/01/02 01:09:51;;;;;;;7.80;1.17;;;;;;;;;;5031533;28;20028;-78
2024/01/02 01:12:16;;;;;;;11.10;1.60;;;;;;;;;;5030027;28;20033;-78
2024/01/02 01:14:41;;;;;;;8.80;1.70;;;;;;;;;;5031135;28;20033;-77
2024/01/02 01:17:07;;;;;;;7.07;1.98;;;;;;;;;;5031439;28;20029;-77
2024/01/02 01:19:33;;;;;;;4.65;1.05;;;;;;;;;;5029519;28;20033;-78
2024/01/02 01:21:58;;;;;;;11.15;1.40;;;;;;;;;;5030974;28;20032;-78
2024/01/02 01:24:23;;;;;;;8.57;1.17;;;;;;;;;;5030582;28;20029;-78
2024/01/02 01:26:52;;;;;;;6.43;1.33;;;;;;;;;;5027666;28;20029;-78
2024/01/02 01:29:18;;;;;;;6.97;1.25;;;;;;;;;;5029360;28;20044;-78
2024/01/02 01:31:43;;;;;;;7.30;1.50;;;;;;;;;;5024696;28;20034;-77
2024/01/02 01:34:08;;;;;;;6.00;1.15;;;;;;;;;;5030828;28;20079;-78
2024/01/02 01:36:34;;;;;;;8.93;1.30;;;;;;;;;;5030905;28;20021;-78
2024/01/02 01:38:59;;;;;;;7.97;1.20;;;;;;;;;;5034181;28;20040;-78
2024/01/02 01:41:24;;;;;;;8.88;1.25;;;;;;;;;;5029349;28;20029;-78
2024/01/02 01:43:49;;;;;;;7.25;1.20;;;;;;;;;;5030628;28;20026;-77
2024/01/02 01:46:15;;;;;;;5.75;0.93;;;;;;;;;;5030658;28;20025;-79
2024/01/02 01:48:41;;;;;;;8.88;1.40;;;;;;;;;;5030272;28;20029;-78
2024/01/02 01:51:06;;;;;;;5.13;0.80;;;;;;;;;;5030876;28;20029;-78
2024/01/02 01:53:32;;;;;;;5.30;1.20;;;;;;;;;;5029921;28;20502;-78
2024/01/02 01:55:58;;;;;;;6.90;1.08;;;;;;;;;;5030908;28;20033;-78
2024/01/02 01:58:23;;;;;;;6.82;0.90;;;;;;;;;;5032458;28;20080;-78
2024/01/02 02:00:48;;;;;;;5.20;0.73;;;;;;;;;;5012439;28;20037;-78
2024/01/02 02:03:14;;;;;;;6.07;1.05;;;;;;;;;;5030671;28;20048;-76
2024/01/02 02:05:39;;;;;;;4.80;1.17;;;;;;;;;;5026764;28;20025;-76
2024/01/02 02:08:05;;;;;;;6.75;1.58;;;;;;;;;;5029056;28;20032;-75
2024/01/02 02:10:30;;;;;;;6.53;1.02;;;;;;;;;;5029362;28;20026;-76
2024/01/02 02:12:56;;;;;;;6.75;1.00;;;;;;;;;;5030246;28;20029;-76
2024/01/02 02:15:21;;;;;;;7.82;1.02;;;;;;;;;;5026937;28;20034;-76
2024/01/02 02:17:46;;;;;;;12.55;1.40;;;;;;;;;;5012683;28;20025;-76
2024/01/02 02:20:12;;;;;;;5.22;1.33;;;;;;;;;;5032747;28;20018;-77
2024/01/02 02:22:38;;;;;;;5.50;1.23;;;;;;;;;;5032776;28;20036;-76
2024/01/02 02:25:04;;;;;;;6.15;1.20;;;;;;;;;;5017686;28;20026;-76
2024/01/02 02:27:33;;;;;;;6.85;1.02;;;;;;;;;;5032659;28;20037;-76
2024/01/02 02:29:58;;;;;;;6.53;1.33;;;;;;;;;;5033095;28;20056;-76
2024/01/02 02:32:23;;;;;;;4.15;0.82;;;;;;;;;;5032802;28;20447;-76
2024/01/02 02:34:48;;;;;;;4.57;0.90;;;;;;;;;;5033964;28;20037;-76
2024/01/02 02:37:14;;;;;;;4.05;0.80;;;;;;;;;;5034509;28;20032;-77
2024/01/02 02:39:39;;;;;;;4.22;0.95;;;;;;;;;;5033822;28;20044;-75
2024/01/02 02:42:04;;;;;;;5.88;1.17;;;;;;;;;;5032717;28;20540;-76
2024/01/02 02:44:31;;;;;;;4.80;1.40;;;;;;;;;;5032719;28;20030;-76
2024/01/02 02:46:57;;;;;;;3.20;0.70;;;;;;;;;;5034137;28;20091;-76
2024/01/02 02:49:22;;;;;;;5.13;0.60;;;;;;;;;;5032283;28;20037;-76
2024/01/02 02:51:47;;;;;;;5.18;0.80;;;;;;;;;;5017623;28;20116;-76
2024/01/02 02:54:13;;;;;;;7.13;1.23;;;;;;;;;;5032356;28;20121;-77
2024/01/02 02:56:39;;;;;;;5.47;0.80;;;;;;;;;;5032838;28;20063;-78
2024/01/02 02:59:04;;;;;;;4.82;0.75;;;;;;;;;;5036156;28;20045;-78
2024/01/02 03:01:30;;;;;;;7.68;1.02;;;;;;;;;;5032646;28;20052;-78
2024/01/02 03:03:56;;;;;;;5.22;0.70;;;;;;;;;;5033816;28;20029;-78
2024/01/02 03:06:21;;;;;;;3.30;0.70;;;;;;;;;;5034033;28;20038;-79
2024/01/02 03:08:46;;;;;;;4.10;0.80;;;;;;;;;;5033485;28;20064;-78
2024/01/02 03:11:11;;;;;;;2.40;0.80;;;;;;;;;;5032231;28;20076;-78
2024/01/02 03:13:37;;;;;;;4.20;0.40;;;;;;;;;;5061757;23;20044;-77
2024/01/02 03:16:02;;;;;;;3.22;0.75;;;;;;;;;;5041293;28;20021;-77
2024/01/02 03:18:27;;;;;;;1.95;0.60;;;;;;;;;;5040431;28;20163;-77
2024/01/02 03:20:52;;;;;;;3.90;0.43;;;;;;;;;;5038337;28;20503;-77
2024/01/02 03:23:17;;;;;;;2.83;0.52;;;;;;;;;;5036205;28;20056;-77
2024/01/02 03:25:43;;;;;;;2.58;0.45;;;;;;;;;;5037183;28;20021;-76
2024/01/02 03:28:08;;;;;;;2.53;0.50;;;;;;;;;;5046605;28;20037;-77
2024/01/02 03:30:33;;;;;;;2.97;0.40;;;;;;;;;;5041874;28;20057;-77
2024/01/02 03:32:58;;;;;;;3.50;0.93;;;;;;;;;;5038624;28;20022;-77
2024/01/02 03:35:24;;;;;;;3.08;1.00;;;;;;;;;;5038233;28;20025;-76
2024/01/02 03:37:49;;;;;;;3.63;0.30;;;;;;;;;;5041127;28;20033;-77
2024/01/02 03:40:14;;;;;;;6.63;1.00;;;;;;;;;;5033946;28;20108;-77
2024/01/02 03:42:40;;;;;;;3.30;0.73;;;;;;;;;;5039767;28;20021;-77
2024/01/02 03:45:05;;;;;;;7.13;0.68;;;;;;;;;;5043278;28;20540;-77
2024/01/02 03:47:31;;;;;;;1.55;0.20;;;;;;;;;;5046325;28;20045;-77
2024/01/02 03:49:56;;;;;;;2.58;0.38;;;;;;;;;;5036357;28;20025;-77
2024/01/02 03:52:21;;;;;;;3.42;0.30;;;;;;;;;;5035545;28;20461;-77
2024/01/02 03:54:46;;;;;;;5.35;0.50;;;;;;;;;;5033140;28;20033;-76
2024/01/02 03:57:11;;;;;;;3.15;0.40;;;;;;;;;;5044396;28;20401;-76
2024/01/02 03:59:36;;;;;;;4.47;0.65;;;;;;;;;;5046260;28;20167;-76
2024/01/02 04:02:02;;;;;;;1.92;0.40;;;;;;;;;;5039486;28;20029;-76
2024/01/02 04:04:27;;;;;;;5.13;0.55;;;;;;;;;;5037005;28;20418;-77
2024/01/02 04:06:52;;;;;;;4.53;0.65;;;;;;;;;;5034387;28;20025;-76
2024/01/02 04:09:17;;;;;;;3.20;0.57;;;;;;;;;;5039760;28;20187;-77
2024/01/02 04:11:42;;;;;;;7.15;0.90;;;;;;;;;;5042612;28;20045;-76
2024/01/02 04:14:08;;;;;;;4.78;0.52;;;;;;;;;;5037814;28;20036;-76
2024/01/02 04:16:33;;;;;;;4.78;0.70;;;;;;;;;;5042532;28;20103;-77
2024/01/02 04:18:58;;;;;;;4.93;0.60;;;;;;;;;;5040627;28;20036;-76
2024/01/02 04:21:23;;;;;;;2.40;0.60;;;;;;;;;;5033866;28;20033;-77
2024/01/02 04:23:48;;;;;;;4.43;0.60;;;;;;;;;;5036019;28;20096;-76
2024/01/02 04:26:14;;;;;;;3.78;0.60;;;;;;;;;;5042835;28;20032;-76
2024/01/02 04:28:39;;;;;;;4.07;0.52;;;;;;;;;;5046086;28;20025;-76
2024/01/02 04:31:06;;;;;;;6.55;0.80;;;;;;;;;;5035676;28;20025;-77
2024/01/02 04:33:31;;;;;;;4.57;0.50;;;;;;;;;;5036949;28;20029;-77
2024/01/02 04:35:57;;;;;;;3.50;0.70;;;;;;;;;;5035735;28;20021;-77
2024/01/02 04:38:22;;;;;;;6.47;0.82;;;;;;;;;;5036433;28;20410;-77
2024/01/02 04:40:47;;;;;;;7.35;0.82;;;;;;;;;;5040667;28;20056;-76
2024/01/02 04:43:12;;;;;;;6.45;0.85;;;;;;;;;;5036294;28;20398;-77
2024/01/02 04:45:37;;;;;;;9.25;1.75;;;;;;;;;;5040620;28;20504;-77
2024/01/02 04:48:03;;;;;;;5.43;0.95;;;;;;;;;;5039319;28;20036;-77
2024/01/02 04:50:28;;;;;;;3.35;0.98;;;;;;;;;;5036284;28;20379;-77
2024/01/02 04:52:53;;;;;;;6.07;0.93;;;;;;;;;;5042457;28;20032;-76
2024/01/02 04:55:18;;;;;;;8.15;1.50;;;;;;;;;;5039960;28;20437;-77
2024/01/02 04:57:43;;;;;;;6.18;1.00;;;;;;;;;;5041967;28;20108;-77
2024/01/02 05:00:09;;;;;;;6.82;0.90;;;;;;;;;;5039044;28;20021;-76
2024/01/02 05:02:34;;;;;;;5.28;1.17;;;;;;;;;;5032036;28;20037;-77
2024/01/02 05:04:59;;;;;;;6.75;1.23;;;;;;;;;;5035528;28;20041;-76
2024/01/02 05:07:24;;;;;;;5.90;0.82;;;;;;;;;;5041137;28;20624;-77
2024/01/02 05:09:51;;;;;;;6.85;2.10;;;;;;;;;;5043521;28;20654;-76
2024/01/02 05:12:17;;;;;;;7.55;0.95;;;;;;;;;;5036647;28;20030;-77
2024/01/02 05:14:42;;;;;;;8.85;1.67;;;;;;;;;;5041426;28;20029;-77
2024/01/02 05:17:09;;;;;;;3.95;0.85;;;;;;;;;;5033192;28;20036;-76
2024/01/02 05:19:34;;;;;;;6.03;0.80;;;;;;;;;;5041724;28;20124;-77
2024/01/02 05:21:59;;;;;;;7.80;1.33;;;;;;;;;;5038394;28;20532;-77
2024/01/02 05:24:24;;;;;;;4.28;1.00;;;;;;;;;;5036980;28;20029;-77
2024/01/02 05:26:50;;;;;;;4.82;1.27;;;;;;;;;;5035891;28;20030;-77
2024/01/02 05:29:16;;;;;;;4.70;0.90;;;;;;;;;;5043191;28;20532;-77
2024/01/02 05:31:41;;;;;;;9.07;1.27;;;;;;;;;;5031840;28;20033;-77
2024/01/02 05:34:06;;;;;;;4.72;1.08;;;;;;;;;;5038270;28;20025;-76
2024/01/02 05:36:31;;;;;;;7.63;0.85;;;;;;;;;;5038975;28;20486;-76
2024/01/02 05:38:57;;;;;;;7.15;0.80;;;;;;;;;;5036776;28;20036;-77
2024/01/02 05:41:22;;;;;;;4.63;0.88;;;;;;;;;;5034700;28;20040;-78
2024/01/02 05:43:47;;;;;;;9.15;1.33;;;;;;;;;;5038446;28;20382;-77
2024/01/02 05:46:12;;;;;;;6.75;1.02;;;;;;;;;;5031325;28;20397;-77
2024/01/02 05:48:37;;;;;;;5.75;0.95;;;;;;;;;;5044490;28;20067;-76
2024/01/02 05:51:03;;;;;;;6.10;1.38;;;;;;;;;;5041082;28;20104;-77
2024/01/02 05:53:29;;;;;;;4.78;0.82;;;;;;;;;;5035544;28;20482;-77
2024/01/02 05:55:54;;;;;;;5.88;0.93;;;;;;;;;;5034064;28;20497;-77
2024/01/02 05:58:19;;;;;;;5.53;0.73;;;;;;;;;;5042687;28;20408;-77
2024/01/02 06:00:44;;;;;;;5.20;1.00;;;;;;;;;;5037734;28;20029;-77
2024/01/02 06:03:09;;;;;;;5.10;1.02;;;;;;;;;;5037338;28;20033;-77
2024/01/02 06:05:35;;;;;;;8.43;1.10;;;;;;;;;;5038535;28;20029;-76
2024/01/02 06:08:00;;;;;;;3.35;0.85;;;;;;;;;;5034407;28;20082;-77
2024/01/02 06:10:25;;;;;;;4.82;1.10;;;;;;;;;;5039336;28;20025;-77
2024/01/02 06:12:50;;;;;;;5.50;1.17;;;;;;;;;;5032508;28;20112;-76
2024/01/02 06:15:15;;;;;;;6.60;1.23;;;;;;;;;;5038465;28;20097;-77
2024/01/02 06:17:40;;;;;;;3.08;0.50;;;;;;;;;;5039770;28;20021;-77
2024/01/02 06:20:06;;;;;;;4.57;1.08;;;;;;;;;;5036833;28;20124;-76
2024/01/02 06:22:31;;;;;;;4.05;0.80;;;;;;;;;;5035239;28;20033;-77
2024/01/02 06:24:57;;;;;;;6.18;1.42;;;;;;;;;;5032781;28;20108;-77
2024/01/02 06:27:22;;;;;;;3.65;0.70;;;;;;;;;;5032701;28;20117;-77
2024/01/02 06:29:47;;;;;;;2.20;0.50;;;;;;;;;;5048186;28;20464;-77
2024/01/02 06:32:12;;;;;;;7.75;1.20;;;;;;;;;;5039770;28;20037;-76
2024/01/02 06:34:37;;;;;;;2.70;0.55;;;;;;;;;;5037277;28;20405;-77
2024/01/02 06:37:02;;;;;;;4.18;0.73;;;;;;;;;;5033696;28;20048;-76
2024/01/02 06:39:28;;;;;;;3.08;0.82;;;;;;;;;;5038183;28;20486;-77
2024/01/02 06:41:53;;;;;;;3.35;0.93;;;;;;;;;;5044757;28;20094;-77
2024/01/02 06:44:18;;;;;;;2.95;0.80;;;;;;;;;;5040772;28;20100;-77
2024/01/02 06:46:43;;;;;;;2.40;0.40;;;;;;;;;;5038826;28;20478;-77
2024/01/02 06:49:09;;;;;;;6.35;1.00;;;;;;;;;;5034180;28;20116;-77
2024/01/02 06:51:34;;;;;;;2.20;0.40;;;;;;;;;;5039444;28;20033;-77
2024/01/02 06:53:59;;;;;;;3.75;0.55;;;;;;;;;;5031569;28;20056;-77
2024/01/02 06:56:24;;;;;;;1.77;0.38;;;;;;;;;;5031470;28;20026;-77
2024/01/02 06:58:50;;;;;;;2.25;0.30;;;;;;;;;;5046278;28;20029;-77
2024/01/02 07:01:15;;;;;;;4.00;0.65;;;;;;;;;;5039177;28;20034;-77
2024/01/02 07:03:41;;;;;;;2.92;0.50;;;;;;;;;;5035793;28;20040;-77
2024/01/02 07:06:06;;;;;;;3.05;0.60;;;;;;;;;;5034089;28;20033;-77
2024/01/02 07:08:31;;;;;;;2.33;0.50;;;;;;;;;;5034788;28;20057;-77
2024/01/02 07:10:56;;;;;;;3.35;0.40;;;;;;;;;;5039139;28;20126;-77
2024/01/02 07:13:22;;;;;;;3.33;0.57;;;;;;;;;;5043693;28;20094;-77
2024/01/02 07:15:47;;;;;;;3.13;1.15;;;;;;;;;;5040835;28;20067;-77
2024/01/02 07:18:12;;;;;;;1.20;0.43;;;;;;;;;;5041731;28;20039;-77
2024/01/02 07:20:37;;;;;;;2.65;0.73;;;;;;;;;;5042948;28;20033;-77
2024/01/02 07:23:03;;;;;;;1.92;0.50;;;;;;;;;;5039692;28;20026;-76
2024/01/02 07:25:28;;;;;;;4.75;0.77;;;;;;;;;;5042064;28;20033;-77
2024/01/02 07:27:53;;;;;;;1.35;0.50;;;;;;;;;;5046734;28;20036;-77
2024/01/02 07:30:18;;;;;;;2.20;0.50;;;;;;;;;;5040328;28;20425;-77
2024/01/02 07:32:43;;;;;;;3.35;0.75;;;;;;;;;;5043495;28;20017;-77
2024/01/02 07:35:08;;;;;;;2.25;0.82;;;;;;;;;;5035131;28;20030;-76
2024/01/02 07:37:34;;;;;;;2.67;0.73;;;;;;;;;;5035432;28;20029;-77
2024/01/02 07:39:59;;;;;;;2.40;0.50;;;;;;;;;;5041883;28;20028;-76
2024/01/02 07:42:24;;;;;;;7.10;1.48;;;;;;;;;;5047034;28;20053;-77
2024/01/02 07:44:49;;;;;;;3.05;0.65;;;;;;;;;;5038993;28;20032;-77
2024/01/02 07:47:16;;;;;;;3.38;0.90;;;;;;;;;;5035695;28;20409;-77
2024/01/02 07:49:42;;;;;;;3.17;0.60;;;;;;;;;;5034809;28;20377;-77
2024/01/02 07:52:07;;;;;;;3.35;0.60;;;;;;;;;;5039249;28;20107;-77
2024/01/02 07:54:35;;;;;;;2.53;0.60;;;;;;;;;;5046291;28;20025;-77
2024/01/02 07:57:00;;;;;;;2.78;0.80;;;;;;;;;;5043059;28;20067;-77
2024/01/02 07:59:25;;;;;;;3.10;1.10;;;;;;;;;;5047679;28;20033;-77
2024/01/02 08:01:51;;;;;;;4.72;1.30;;;;;;;;;;5036397;28;20120;-77
2024/01/02 08:04:16;;;;;;;2.67;1.00;;;;;;;;;;5040102;28;20025;-77
2024/01/02 08:06:41;;;;;;;3.30;0.75;;;;;;;;;;5039457;28;20029;-77
2024/01/02 08:09:06;;;;;;;4.72;1.00;;;;;;;;;;5039322;28;20034;-77
2024/01/02 08:11:32;;;;;;;4.35;1.83;;;;;;;;;;5042349;28;20493;-77
2024/01/02 08:13:57;;;;;;;3.50;0.90;;;;;;;;;;5045744;28;20443;-77
2024/01/02 08:16:22;;;;;;;4.47;1.23;;;;;;;;;;5038388;28;20030;-77
2024/01/02 08:18:47;;;;;;;4.00;1.17;;;;;;;;;;5033167;28;20048;-76
2024/01/02 08:21:13;;;;;;;2.30;0.80;;;;;;;;;;5043957;28;20449;-77
2024/01/02 08:23:38;;;;;;;2.97;0.95;;;;;;;;;;5044336;28;20215;-77
2024/01/02 08:26:10;;;;;;;2.95;1.10;;;;;;;;;;5037233;28;20508;-77
2024/01/02 08:28:35;;;;;;;3.33;0.80;;;;;;;;;;5041008;28;20048;-77
2024/01/02 08:31:01;;;;;;;2.08;0.82;;;;;;;;;;5033560;28;20030;-76
2024/01/02 08:33:26;;;;;;;4.25;0.90;;;;;;;;;;5038007;28;20035;-77
2024/01/02 08:35:51;;;;;;;2.05;0.70;;;;;;;;;;5042013;28;20033;-77
2024/01/02 08:38:16;;;;;;;3.40;1.42;;;;;;;;;;5037309;28;20029;-77
2024/01/02 08:40:41;;;;;;;3.20;0.98;;;;;;;;;;5038191;28;20047;-77
2024/01/02 08:43:07;;;;;;;3.78;1.20;;;;;;;;;;5036481;28;20076;-76
2024/01/02 08:45:32;;;;;;;4.32;1.13;;;;;;;;;;5035648;28;20033;-77
2024/01/02 08:47:57;;;;;;;3.67;1.17;;;;;;;;;;5035190;28;20036;-77
2024/01/02 08:50:23;;;;;;;3.72;1.10;;;;;;;;;;5038506;28;20493;-77
2024/01/02 08:52:48;;;;;;;4.28;1.25;;;;;;;;;;5039172;28;20037;-77
2024/01/02 08:55:14;;;;;;;4.75;1.50;;;;;;;;;;5036746;28;20036;-77
2024/01/02 08:57:39;;;;;;;2.78;1.10;;;;;;;;;;5043476;28;20450;-77
2024/01/02 09:00:07;;;;;;;3.35;1.13;;;;;;;;;;5040854;28;20025;-77
2024/01/02 09:02:33;;;;;;;3.50;1.50;;;;;;;;;;5036334;28;20532;-77
2024/01/02 09:04:58;;;;;;;4.32;1.48;;;;;;;;;;5043502;28;20033;-77
2024/01/02 09:07:24;;;;;;;2.88;0.93;;;;;;;;;;5036152;28;20021;-77
2024/01/02 09:09:49;;;;;;;4.32;1.17;;;;;;;;;;5040007;28;20024;-77
2024/01/02 09:12:15;;;;;;;3.85;1.70;;;;;;;;;;5044055;28;20409;-76
2024/01/02 09:14:40;;;;;;;2.83;1.33;;;;;;;;;;5087382;23;20485;-81
2024/01/02 09:17:05;;;;;;;3.08;1.35;;;;;;;;;;5030746;28;20026;-81
2024/01/02 09:19:30;;;;;;;3.60;1.02;;;;;;;;;;5032047;28;20498;-81
2024/01/02 09:21:55;;;;;;;4.20;1.38;;;;;;;;;;5033677;28;20037;-80
2024/01/02 09:24:21;;;;;;;2.88;1.30;;;;;;;;;;5030587;28;20080;-81
2024/01/02 09:26:47;;;;;;;3.40;1.10;;;;;;;;;;5028784;28;20033;-82
2024/01/02 09:29:13;;;;;;;2.08;0.85;;;;;;;;;;5031383;28;20109;-81
2024/01/02 09:31:41;;;;;;;6.00;1.30;;;;;;;;;;5031818;28;20451;-81
2024/01/02 09:34:06;;;;;;;7.18;1.35;;;;;;;;;;5031937;28;20103;-80
2024/01/02 09:36:31;;;;;;;4.68;1.60;;;;;;;;;;5028803;28;20030;-81
2024/01/02 09:38:57;;;;;;;5.03;1.25;;;;;;;;;;5028142;28;20177;-81
2024/01/02 09:41:41;;;;;;;4.07;1.20;;;;;;;;;;5024132;28;20062;-82
2024/01/02 09:44:09;;;;;;;3.10;0.93;;;;;;;;;;5031130;28;20040;-80
2024/01/02 09:46:34;;;;;;;2.75;1.10;;;;;;;;;;5031155;28;20049;-79
2024/01/02 09:49:09;;;;;;;2.42;0.90;;;;;;;;;;5032243;28;20037;-80
2024/01/02 09:51:58;;;;;;;2.70;1.02;;;;;;;;;;5030836;28;20030;-78
2024/01/02 09:54:30;;;;;;;3.03;0.90;;;;;;;;;;5026411;28;20034;-78
2024/01/02 09:57:11;;;;;;;2.45;0.82;;;;;;;;;;5038126;28;20025;-80
2024/01/02 09:59:51;;;;;;;3.25;0.70;;;;;;;;;;5033606;28;20045;-80
2024/01/02 10:02:16;;;;;;;3.47;1.02;;;;;;;;;;5028169;28;20029;-80
2024/01/02 10:04:58;;;;;;;2.25;0.93;;;;;;;;;;5029199;28;20045;-80
2024/01/02 10:07:48;;;;;;;21.25;10.93;;;;;;;;;;5023706;28;20060;-77
2024/01/02 10:10:23;;;;;;;6.28;1.92;;;;;;;;;;5026438;28;20022;-79
2024/01/02 10:13:07;;;;;;;3.10;0.90;;;;;;;;;;5028683;28;20083;-79
2024/01/02 10:15:51;;;;;;;3.42;0.98;;;;;;;;;;5031886;28;20025;-80
2024/01/02 10:18:29;;;;;;;1.88;0.60;;;;;;;;;;5032012;28;20044;-80
2024/01/02 10:21:09;;;;;;;2.85;0.82;;;;;;;;;;5027884;28;20513;-79
2024/01/02 10:23:38;;;;;;;2.28;0.55;;;;;;;;;;5040041;28;20049;-80
2024/01/02 10:26:04;;;;;;;1.75;0.50;;;;;;;;;;5012479;28;20030;-80
2024/01/02 10:28:29;;;;;;;1.10;0.52;;;;;;;;;;5031827;28;20529;-78
2024/01/02 10:31:23;;;;;;;4.00;1.30;;;;;;;;;;5032661;28;20026;-80
2024/01/02 10:34:09;;;;;;;1.30;0.50;;;;;;;;;;5010879;28;20414;-79
2024/01/02 10:36:37;;;;;;;2.00;0.90;;;;;;;;;;5025307;28;20037;-79
2024/01/02 10:39:20;;;;;;;1.55;0.50;;;;;;;;;;5028758;28;20053;-79
2024/01/02 10:41:48;;;;;;;2.28;0.60;;;;;;;;;;5034085;28;20116;-80
2024/01/02 10:44:37;;;;;;;1.00;0.50;;;;;;;;;;5039487;28;20026;-79
2024/01/02 10:47:10;;;;;;;2.78;0.43;;;;;;;;;;5032904;28;20587;-79
2024/01/02 10:49:35;;;;;;;1.60;0.50;;;;;;;;;;5029130;28;20038;-80
2024/01/02 10:52:16;;;;;;;1.73;0.40;;;;;;;;;;5029706;28;20029;-80
2024/01/02 10:54:53;;;;;;;2.85;0.52;;;;;;;;;;5035299;28;20772;-80
2024/01/02 10:57:26;;;;;;;0.77;0.40;;;;;;;;;;5032562;28;20060;-79
2024/01/02 11:00:08;;;;;;;1.08;0.45;;;;;;;;;;5037119;28;20490;-79
2024/01/02 11:02:47;;;;;;;1.15;0.50;;;;;;;;;;5028578;28;20034;-78
2024/01/02 11:05:20;;;;;;;2.50;0.60;;;;;;;;;;5027489;28;20048;-79
2024/01/02 11:07:48;;;;;;;1.92;0.52;;;;;;;;;;5031531;28;20022;-79
2024/01/02 11:10:14;;;;;;;1.83;0.50;;;;;;;;;;5035522;28;20113;-79
2024/01/02 11:12:51;;;;;;;1.45;0.45;;;;;;;;;;5032758;28;20053;-79
2024/01/02 11:15:18;;;;;;;2.35;0.55;;;;;;;;;;5030307;28;20037;-78
2024/01/02 11:17:44;;;;;;;1.42;0.50;;;;;;;;;;5027668;28;20470;-79
2024/01/02 11:20:13;;;;;;;1.70;0.40;;;;;;;;;;5027127;28;20057;-79
2024/01/02 11:22:53;;;;;;;1.73;0.60;;;;;;;;;;5033256;28;20041;-79
2024/01/02 11:25:21;;;;;;;2.17;0.50;;;;;;;;;;5031627;28;20026;-78
2024/01/02 11:27:46;;;;;;;5.00;2.13;;;;;;;;;;5030916;28;20087;-79
2024/01/02 11:30:12;;;;;;;3.40;1.30;;;;;;;;;;5042630;28;20037;-79
2024/01/02 11:32:47;;;;;;;1.30;0.38;;;;;;;;;;5027167;28;20037;-78
2024/01/02 11:35:12;;;;;;;1.30;0.50;;;;;;;;;;5028033;28;20026;-79
2024/01/02 11:37:37;;;;;;;1.05;0.35;;;;;;;;;;5033983;28;20060;-78
2024/01/02 11:40:22;;;;;;;0.93;0.40;;;;;;;;;;5034766;28;20022;-79
2024/01/02 11:42:51;;;;;;;1.60;0.52;;;;;;;;;;5033080;28;20021;-79
2024/01/02 11:45:17;;;;;;;2.92;0.40;;;;;;;;;;5026741;28;20022;-79
2024/01/02 11:47:43;;;;;;;0.95;0.38;;;;;;;;;;5009553;28;20125;-79
2024/01/02 11:50:09;;;;;;;1.02;0.47;;;;;;;;;;5031525;28;20029;-78
2024/01/02 11:52:40;;;;;;;1.55;0.68;;;;;;;;;;5032936;28;20046;-79
2024/01/02 11:55:10;;;;;;;1.27;0.37;;;;;;;;;;5034729;28;20036;-78
2024/01/02 11:57:50;;;;;;;1.58;0.43;;;;;;;;;;5026747;28;20277;-79
2024/01/02 12:00:20;;;;;;;1.67;0.57;;;;;;;;;;5025514;28;20401;-79
2024/01/02 12:02:56;;;;;;;3.45;0.80;;;;;;;;;;5027356;28;20056;-79
2024/01/02 12:05:36;;;;;;;1.20;0.30;;;;;;;;;;5030575;28;20040;-79
2024/01/02 12:08:03;;;;;;;1.45;0.40;;;;;;;;;;5032232;28;20033;-79
2024/01/02 12:10:35;;;;;;;1.98;0.40;;;;;;;;;;5030497;28;20030;-79
2024/01/02 12:13:11;;;;;;;1.20;0.40;;;;;;;;;;5030240;28;20564;-79
2024/01/02 12:15:42;;;;;;;0.70;0.22;;;;;;;;;;5025683;28;20046;-79
2024/01/02 12:18:09;;;;;;;1.20;0.43;;;;;;;;;;5032888;28;20030;-78
2024/01/02 12:20:40;;;;;;;1.88;0.38;;;;;;;;;;5033885;28;20109;-79
2024/01/02 12:23:06;;;;;;;1.75;0.63;;;;;;;;;;5032790;28;20029;-78
2024/01/02 12:25:31;;;;;;;1.02;0.45;;;;;;;;;;5025947;28;20034;-78
2024/01/02 12:27:59;;;;;;;0.55;0.22;;;;;;;;;;5031985;28;20037;-79
2024/01/02 12:30:34;;;;;;;0.52;0.20;;;;;;;;;;5027520;28;20022;-79
2024/01/02 12:33:03;;;;;;;1.05;0.38;;;;;;;;;;5033971;28;20378;-78
2024/01/02 12:35:31;;;;;;;1.48;0.47;;;;;;;;;;5027278;28;20060;-79
2024/01/02 12:38:17;;;;;;;0.82;0.20;;;;;;;;;;5030441;28;20030;-79
2024/01/02 12:40:43;;;;;;;1.55;0.40;;;;;;;;;;5029164;28;20115;-78
2024/01/02 12:43:10;;;;;;;0.65;0.35;;;;;;;;;;5026555;28;20768;-78
2024/01/02 12:45:39;;;;;;;2.97;1.20;;;;;;;;;;5039132;28;20034;-78
2024/01/02 12:48:05;;;;;;;1.73;0.70;;;;;;;;;;5031609;28;20120;-78
2024/01/02 12:50:30;;;;;;;1.88;0.50;;;;;;;;;;5030943;28;20076;-79
2024/01/02 12:53:03;;;;;;;1.17;0.40;;;;;;;;;;5029359;28;20112;-78
2024/01/02 12:55:28;;;;;;;1.08;0.35;;;;;;;;;;5024766;28;20044;-78
2024/01/02 12:57:53;;;;;;;1.25;0.50;;;;;;;;;;5035859;28;20092;-77
2024/01/02 13:00:20;;;;;;;1.23;0.40;;;;;;;;;;5033217;28;20440;-78
2024/01/02 13:02:46;;;;;;;2.40;0.60;;;;;;;;;;5039040;28;20034;-77
2024/01/02 13:05:11;;;;;;;1.63;0.68;;;;;;;;;;5029949;28;20052;-78
2024/01/02 13:07:37;;;;;;;2.28;0.63;;;;;;;;;;5026956;28;20037;-78
2024/01/02 13:10:04;;;;;;;1.27;0.40;;;;;;;;;;5025609;28;20113;-78
2024/01/02 13:12:29;;;;;;;1.40;0.50;;;;;;;;;;5029731;28;20029;-78
2024/01/02 13:14:55;;;;;;;1.73;0.60;;;;;;;;;;5031463;28;20386;-77
2024/01/02 13:17:21;;;;;;;0.82;0.40;;;;;;;;;;5029931;28;20025;-78
2024/01/02 13:19:46;;;;;;;1.50;0.45;;;;;;;;;;5028227;28;20045;-78
2024/01/02 13:22:19;;;;;;;1.05;0.40;;;;;;;;;;5029882;28;20022;-78
2024/01/02 13:24:48;;;;;;;1.98;0.30;;;;;;;;;;5023833;28;20037;-78
2024/01/02 13:27:15;;;;;;;0.60;0.35;;;;;;;;;;5029558;28;20037;-78
2024/01/02 13:29:44;;;;;;;1.92;0.90;;;;;;;;;;5032811;28;20117;-78
2024/01/02 13:32:09;;;;;;;2.40;1.02;;;;;;;;;;5031773;28;20033;-78
2024/01/02 13:34:35;;;;;;;1.45;0.60;;;;;;;;;;5024969;28;20401;-78
2024/01/02 13:37:00;;;;;;;1.55;0.32;;;;;;;;;;5032477;28;20034;-78
2024/01/02 13:39:35;;;;;;;1.70;0.45;;;;;;;;;;5021145;28;20422;-78
2024/01/02 13:42:04;;;;;;;0.50;0.30;;;;;;;;;;5029933;28;20033;-78
2024/01/02 13:44:31;;;;;;;1.70;0.60;;;;;;;;;;5028120;28;20167;-78
2024/01/02 13:46:56;;;;;;;1.05;0.50;;;;;;;;;;5031686;28;20033;-77
2024/01/02 13:49:41;;;;;;;2.50;0.65;;;;;;;;;;5025989;28;20037;-78
2024/01/02 13:52:06;;;;;;;1.52;0.60;;;;;;;;;;5028169;28;20028;-78
2024/01/02 13:54:40;;;;;;;2.33;0.90;;;;;;;;;;5027345;28;20034;-79
2024/01/02 13:57:05;;;;;;;2.35;0.98;;;;;;;;;;5016018;28;20029;-78
2024/01/02 13:59:32;;;;;;;2.88;1.25;;;;;;;;;;5029251;28;20476;-77
2024/01/02 14:01:58;;;;;;;2.95;0.60;;;;;;;;;;5028872;28;20029;-78
2024/01/02 14:04:24;;;;;;;1.83;0.35;;;;;;;;;;5027848;28;20945;-78
2024/01/02 14:06:49;;;;;;;1.27;0.50;;;;;;;;;;5028522;28;20022;-78
2024/01/02 14:09:19;;;;;;;1.05;0.43;;;;;;;;;;5027014;28;20034;-78
2024/01/02 14:12:00;;;;;;;1.15;0.28;;;;;;;;;;5029626;28;20041;-78
2024/01/02 14:14:38;;;;;;;1.48;0.50;;;;;;;;;;5031038;28;20509;-78
2024/01/02 14:17:06;;;;;;;1.75;0.73;;;;;;;;;;5042546;28;20118;-78
2024/01/02 14:19:34;;;;;;;1.00;0.47;;;;;;;;;;5027492;28;20085;-78
2024/01/02 14:22:03;;;;;;;1.70;0.40;;;;;;;;;;5029561;28;20037;-78
2024/01/02 14:24:31;;;;;;;0.88;0.40;;;;;;;;;;5034550;28;20033;-76
2024/01/02 14:27:06;;;;;;;0.60;0.40;;;;;;;;;;5034418;28;20025;-78
2024/01/02 14:29:35;;;;;;;1.40;0.40;;;;;;;;;;5032184;28;20041;-78
2024/01/02 14:32:07;;;;;;;0.80;0.40;;;;;;;;;;5033342;28;20469;-77
2024/01/02 14:34:41;;;;;;;1.48;0.43;;;;;;;;;;5030984;28;20030;-77
2024/01/02 14:37:25;;;;;;;1.70;0.50;;;;;;;;;;5036280;28;20029;-78
2024/01/02 14:40:02;;;;;;;1.90;0.70;;;;;;;;;;5033167;28;20029;-78
2024/01/02 14:42:43;;;;;;;2.38;0.63;;;;;;;;;;5030526;28;20542;-78
2024/01/02 14:45:10;;;;;;;1.93;0.67;;;;;;;;;;5033459;28;20597;-78